Time;durP1;ratioP1;P1;durP2;ratioP2;P2;SDS_P1;SDS_P2;PMS_P1;PMS_P2;Temp;Humidity;BMP_temperature;BMP_pressure;BME280_temperature;BME280_humidity;BME280_pressure;Samples;Min_cycle;Max_cycle;Signal;HPM_P1;HPM_P2
2023/04/13 00:02:02;;;;;;;0.30;0.30;;;;;;;;;;5019220;28;20234;-61
2023/04/13 00:04:30;;;;;;;0.40;0.40;;;;;;;;;;5019583;28;20209;-61
2023/04/13 00:07:01;;;;;;;0.30;0.30;;;;;;;;;;5019324;28;20214;-61
2023/04/13 00:09:29;;;;;;;0.35;0.30;;;;;;;;;;5019016;28;20233;-61
2023/04/13 00:11:58;;;;;;;0.20;0.20;;;;;;;;;;5019150;28;20202;-61
2023/04/13 00:14:32;;;;;;;0.38;0.30;;;;;;;;;;5019264;28;20226;-61
2023/04/13 00:17:02;;;;;;;0.35;0.35;;;;;;;;;;5019687;28;20221;-61
2023/04/13 00:19:30;;;;;;;0.40;0.40;;;;;;;;;;5019125;28;20261;-61
2023/04/13 00:21:59;;;;;;;0.40;0.32;;;;;;;;;;5019104;28;20203;-61
2023/04/13 00:24:27;;;;;;;0.30;0.30;;;;;;;;;;5018683;28;20210;-61
2023/04/13 00:26:55;;;;;;;0.30;0.30;;;;;;;;;;5019483;28;20245;-61
2023/04/13 00:29:23;;;;;;;0.30;0.30;;;;;;;;;;5018825;28;20218;-61
2023/04/13 00:31:51;;;;;;;0.50;0.40;;;;;;;;;;5019011;28;20206;-61
2023/04/13 00:34:20;;;;;;;0.50;0.50;;;;;;;;;;5018937;28;20527;-61
2023/04/13 00:36:47;;;;;;;0.30;0.30;;;;;;;;;;5019023;28;20214;-61
2023/04/13 00:39:15;;;;;;;1.00;0.35;;;;;;;;;;5018876;28;20213;-61
2023/04/13 00:41:43;;;;;;;0.30;0.30;;;;;;;;;;5019124;28;20646;-61
2023/04/13 00:44:10;;;;;;;0.35;0.35;;;;;;;;;;5018637;28;20202;-61
2023/04/13 00:46:41;;;;;;;0.30;0.30;;;;;;;;;;5018513;28;20213;-61
2023/04/13 00:49:08;;;;;;;0.30;0.30;;;;;;;;;;5018636;28;20209;-61
2023/04/13 00:51:37;;;;;;;0.38;0.35;;;;;;;;;;5018985;28;20207;-61
2023/04/13 00:54:05;;;;;;;0.30;0.30;;;;;;;;;;5018764;28;20292;-61
2023/04/13 00:56:33;;;;;;;0.60;0.30;;;;;;;;;;5018464;28;20207;-61
2023/04/13 00:59:01;;;;;;;0.40;0.40;;;;;;;;;;5018570;28;20207;-61
2023/04/13 01:01:29;;;;;;;0.40;0.40;;;;;;;;;;5018015;28;20230;-61
2023/04/13 01:03:56;;;;;;;0.50;0.40;;;;;;;;;;5018416;28;20274;-61
2023/04/13 01:06:26;;;;;;;0.30;0.30;;;;;;;;;;5018012;28;20217;-61
2023/04/13 01:08:58;;;;;;;0.30;0.30;;;;;;;;;;5018004;28;20199;-61
2023/04/13 01:11:29;;;;;;;0.30;0.30;;;;;;;;;;5017684;28;20206;-61
2023/04/13 01:14:00;;;;;;;0.40;0.35;;;;;;;;;;5018339;28;20240;-61
2023/04/13 01:16:30;;;;;;;0.30;0.30;;;;;;;;;;5018261;28;20213;-61
2023/04/13 01:18:58;;;;;;;0.43;0.43;;;;;;;;;;5017948;28;20202;-61
2023/04/13 01:21:27;;;;;;;0.30;0.30;;;;;;;;;;5018110;28;20237;-61
2023/04/13 01:24:07;;;;;;;0.43;0.43;;;;;;;;;;5018121;28;20202;-61
2023/04/13 01:26:38;;;;;;;0.20;0.20;;;;;;;;;;5017820;28;20206;-61
2023/04/13 01:29:08;;;;;;;0.55;0.30;;;;;;;;;;5017929;28;20202;-61
2023/04/13 01:31:36;;;;;;;0.30;0.30;;;;;;;;;;5018194;28;20206;-61
2023/04/13 01:34:04;;;;;;;0.35;0.35;;;;;;;;;;5017781;28;20230;-61
2023/04/13 01:36:34;;;;;;;0.30;0.30;;;;;;;;;;5017580;28;20198;-61
2023/04/13 01:39:02;;;;;;;0.30;0.30;;;;;;;;;;5017051;28;20202;-61
2023/04/13 01:41:31;;;;;;;0.20;0.20;;;;;;;;;;5017546;28;20214;-61
2023/04/13 01:43:58;;;;;;;0.30;0.30;;;;;;;;;;5016838;28;20203;-61
2023/04/13 01:46:29;;;;;;;0.40;0.40;;;;;;;;;;5017816;28;20206;-61
2023/04/13 01:48:57;;;;;;;0.93;0.40;;;;;;;;;;5017328;28;20222;-61
2023/04/13 01:51:28;;;;;;;0.28;0.28;;;;;;;;;;5017640;28;20233;-61
2023/04/13 01:53:58;;;;;;;0.30;0.30;;;;;;;;;;5016988;28;20633;-61
2023/04/13 01:56:26;;;;;;;0.35;0.35;;;;;;;;;;5017756;28;20794;-61
2023/04/13 01:58:56;;;;;;;0.40;0.40;;;;;;;;;;5017501;28;20206;-61
2023/04/13 02:01:24;;;;;;;0.40;0.40;;;;;;;;;;5017514;28;20213;-61
2023/04/13 02:03:53;;;;;;;0.30;0.30;;;;;;;;;;5017089;28;20202;-61
2023/04/13 02:06:21;;;;;;;0.30;0.30;;;;;;;;;;5017447;28;20206;-61
2023/04/13 02:08:49;;;;;;;0.30;0.30;;;;;;;;;;5017286;28;20206;-61
2023/04/13 02:11:16;;;;;;;0.38;0.38;;;;;;;;;;5017769;28;20206;-61
2023/04/13 02:13:44;;;;;;;0.30;0.28;;;;;;;;;;5017417;28;20242;-61
2023/04/13 02:16:11;;;;;;;0.30;0.30;;;;;;;;;;5017327;28;20210;-61
2023/04/13 02:18:39;;;;;;;0.20;0.20;;;;;;;;;;5017260;28;20213;-61
2023/04/13 02:21:10;;;;;;;0.22;0.20;;;;;;;;;;5016927;28;20203;-61
2023/04/13 02:23:37;;;;;;;0.20;0.20;;;;;;;;;;5017018;28;20202;-61
2023/04/13 02:26:08;;;;;;;0.30;0.28;;;;;;;;;;5016471;28;20213;-61
2023/04/13 02:28:35;;;;;;;0.30;0.30;;;;;;;;;;5017492;28;20710;-61
2023/04/13 02:31:03;;;;;;;0.22;0.22;;;;;;;;;;5016221;28;20654;-61
2023/04/13 02:33:31;;;;;;;0.30;0.30;;;;;;;;;;5017132;28;20233;-61
2023/04/13 02:35:59;;;;;;;0.40;0.25;;;;;;;;;;5016806;28;20207;-61
2023/04/13 02:38:28;;;;;;;0.30;0.30;;;;;;;;;;5017751;28;20226;-61
2023/04/13 02:40:56;;;;;;;0.30;0.20;;;;;;;;;;5017078;28;20210;-61
2023/04/13 02:43:25;;;;;;;0.30;0.30;;;;;;;;;;5016934;28;20203;-61
2023/04/13 02:45:53;;;;;;;0.30;0.30;;;;;;;;;;5017247;28;20210;-61
2023/04/13 02:48:21;;;;;;;0.95;0.40;;;;;;;;;;5020481;28;20285;-61
2023/04/13 02:50:48;;;;;;;0.90;0.30;;;;;;;;;;5020656;28;20541;-61
2023/04/13 02:53:18;;;;;;;0.50;0.35;;;;;;;;;;5020527;28;20221;-61
2023/04/13 02:55:49;;;;;;;0.30;0.30;;;;;;;;;;5020136;28;20198;-61
2023/04/13 02:58:18;;;;;;;0.30;0.30;;;;;;;;;;5020332;28;20203;-61
2023/04/13 03:00:47;;;;;;;0.32;0.32;;;;;;;;;;5020467;28;20206;-61
2023/04/13 03:03:15;;;;;;;0.30;0.30;;;;;;;;;;5020531;28;20322;-61
2023/04/13 03:05:43;;;;;;;0.30;0.30;;;;;;;;;;5020574;28;20206;-61
2023/04/13 03:08:11;;;;;;;0.20;0.20;;;;;;;;;;5020496;28;20594;-61
2023/04/13 03:10:39;;;;;;;0.30;0.30;;;;;;;;;;5020292;28;20586;-61
2023/04/13 03:13:08;;;;;;;0.30;0.30;;;;;;;;;;5020625;28;20213;-61
2023/04/13 03:15:36;;;;;;;0.30;0.30;;;;;;;;;;5020197;28;20237;-61
2023/04/13 03:18:04;;;;;;;0.30;0.30;;;;;;;;;;5020041;28;20285;-61
2023/04/13 03:20:31;;;;;;;0.28;0.28;;;;;;;;;;5020102;28;20638;-61
2023/04/13 03:23:00;;;;;;;0.65;0.30;;;;;;;;;;5019990;28;20213;-61
2023/04/13 03:25:28;;;;;;;0.30;0.30;;;;;;;;;;5020423;28;20209;-61
2023/04/13 03:27:56;;;;;;;0.20;0.20;;;;;;;;;;5019360;28;20563;-61
2023/04/13 03:30:25;;;;;;;0.30;0.30;;;;;;;;;;5019914;28;20553;-61
2023/04/13 03:32:53;;;;;;;0.20;0.20;;;;;;;;;;5020228;28;20514;-61
2023/04/13 03:35:20;;;;;;;0.30;0.30;;;;;;;;;;5019421;28;20230;-61
2023/04/13 03:37:48;;;;;;;0.30;0.30;;;;;;;;;;5019656;28;20212;-61
2023/04/13 03:40:16;;;;;;;0.20;0.20;;;;;;;;;;5019718;28;20581;-61
2023/04/13 03:42:43;;;;;;;0.28;0.28;;;;;;;;;;5019462;28;20217;-61
2023/04/13 03:45:11;;;;;;;0.20;0.20;;;;;;;;;;5019514;28;20214;-61
2023/04/13 03:47:40;;;;;;;0.30;0.30;;;;;;;;;;5019698;28;20594;-61
2023/04/13 03:50:08;;;;;;;0.47;0.30;;;;;;;;;;5019568;28;20606;-61
2023/04/13 03:52:36;;;;;;;0.30;0.30;;;;;;;;;;5019268;28;20313;-61
2023/04/13 03:55:03;;;;;;;0.20;0.20;;;;;;;;;;5019508;28;20237;-61
2023/04/13 03:57:30;;;;;;;0.40;0.25;;;;;;;;;;5018415;28;20210;-61
2023/04/13 03:59:58;;;;;;;0.28;0.28;;;;;;;;;;5018823;28;20206;-61
2023/04/13 04:02:26;;;;;;;0.30;0.30;;;;;;;;;;5018984;28;20249;-61
2023/04/13 04:04:54;;;;;;;0.20;0.20;;;;;;;;;;5019007;28;20589;-61
2023/04/13 04:07:22;;;;;;;0.30;0.30;;;;;;;;;;5018609;28;20217;-61
2023/04/13 04:09:50;;;;;;;0.13;0.13;;;;;;;;;;5017966;28;20213;-61
2023/04/13 04:12:17;;;;;;;0.20;0.20;;;;;;;;;;5019136;28;20210;-61
2023/04/13 04:14:44;;;;;;;0.30;0.30;;;;;;;;;;5018500;28;20233;-61
2023/04/13 04:17:12;;;;;;;0.30;0.20;;;;;;;;;;5019007;28;20213;-61
2023/04/13 04:19:39;;;;;;;0.30;0.30;;;;;;;;;;5017975;28;20209;-61
2023/04/13 04:22:08;;;;;;;0.30;0.30;;;;;;;;;;5018846;28;20234;-61
2023/04/13 04:24:35;;;;;;;0.30;0.20;;;;;;;;;;5019254;28;20649;-61
2023/04/13 04:27:04;;;;;;;0.20;0.20;;;;;;;;;;5018264;28;20238;-61
2023/04/13 04:29:33;;;;;;;0.38;0.30;;;;;;;;;;5018320;28;20245;-61
2023/04/13 04:32:02;;;;;;;0.35;0.30;;;;;;;;;;5018630;28;20272;-61
2023/04/13 04:34:30;;;;;;;0.30;0.30;;;;;;;;;;5017869;28;20229;-61
2023/04/13 04:36:57;;;;;;;0.30;0.30;;;;;;;;;;5018237;28;20211;-61
2023/04/13 04:39:29;;;;;;;0.28;0.20;;;;;;;;;;5018183;28;20214;-61
2023/04/13 04:42:02;;;;;;;0.40;0.30;;;;;;;;;;5017806;28;20210;-61
2023/04/13 04:44:31;;;;;;;0.20;0.20;;;;;;;;;;5018411;28;20291;-61
2023/04/13 04:46:59;;;;;;;0.30;0.30;;;;;;;;;;5017912;28;20495;-61
2023/04/13 04:49:28;;;;;;;0.30;0.28;;;;;;;;;;5018258;28;20233;-61
2023/04/13 04:51:56;;;;;;;0.30;0.25;;;;;;;;;;5018003;28;20210;-61
2023/04/13 04:54:23;;;;;;;0.40;0.30;;;;;;;;;;5017817;28;20229;-61
2023/04/13 04:56:52;;;;;;;0.40;0.30;;;;;;;;;;5017995;28;20234;-61
2023/04/13 04:59:19;;;;;;;0.35;0.20;;;;;;;;;;5018146;28;20214;-61
2023/04/13 05:01:48;;;;;;;0.30;0.30;;;;;;;;;;5017627;28;20245;-61
2023/04/13 05:04:15;;;;;;;0.40;0.40;;;;;;;;;;5016939;28;20209;-61
2023/04/13 05:06:43;;;;;;;0.30;0.20;;;;;;;;;;5017277;28;20207;-61
2023/04/13 05:09:10;;;;;;;0.20;0.20;;;;;;;;;;5017157;28;20328;-61
2023/04/13 05:11:38;;;;;;;0.30;0.30;;;;;;;;;;5017713;28;20238;-61
2023/04/13 05:14:06;;;;;;;0.30;0.30;;;;;;;;;;5016996;28;20198;-61
2023/04/13 05:16:34;;;;;;;0.32;0.20;;;;;;;;;;5016719;28;20210;-61
2023/04/13 05:19:04;;;;;;;0.30;0.30;;;;;;;;;;5017054;28;20221;-61
2023/04/13 05:21:32;;;;;;;0.35;0.35;;;;;;;;;;5017155;28;20206;-61
2023/04/13 05:23:59;;;;;;;0.63;0.30;;;;;;;;;;5016894;28;20230;-61
2023/04/13 05:26:27;;;;;;;0.40;0.30;;;;;;;;;;5017483;28;20217;-61
2023/04/13 05:28:55;;;;;;;0.28;0.28;;;;;;;;;;5017041;28;20268;-61
2023/04/13 05:31:24;;;;;;;0.50;0.40;;;;;;;;;;5017302;28;20210;-62
2023/04/13 05:33:51;;;;;;;0.60;0.52;;;;;;;;;;5015955;28;20555;-61
2023/04/13 05:36:19;;;;;;;0.40;0.30;;;;;;;;;;5016483;28;20629;-61
2023/04/13 05:38:46;;;;;;;0.35;0.30;;;;;;;;;;5016851;28;20202;-61
2023/04/13 05:41:13;;;;;;;0.35;0.30;;;;;;;;;;5017174;28;20273;-61
2023/04/13 05:43:43;;;;;;;0.50;0.40;;;;;;;;;;5016832;28;20202;-61
2023/04/13 05:46:11;;;;;;;0.57;0.40;;;;;;;;;;5016368;28;20450;-60
2023/04/13 05:48:40;;;;;;;0.73;0.40;;;;;;;;;;5016352;28;20581;-61
2023/04/13 05:51:08;;;;;;;0.52;0.50;;;;;;;;;;5016970;28;20206;-61
2023/04/13 05:53:35;;;;;;;0.43;0.30;;;;;;;;;;5016401;28;20214;-61
2023/04/13 05:56:03;;;;;;;0.30;0.30;;;;;;;;;;5016552;28;20230;-62
2023/04/13 05:58:30;;;;;;;0.95;0.40;;;;;;;;;;5016928;28;20287;-61
2023/04/13 06:00:57;;;;;;;0.75;0.50;;;;;;;;;;5016750;28;20212;-61
2023/04/13 06:03:26;;;;;;;0.40;0.40;;;;;;;;;;5017974;28;20242;-61
2023/04/13 06:05:55;;;;;;;0.75;0.43;;;;;;;;;;5016228;28;20210;-61
2023/04/13 06:08:22;;;;;;;0.57;0.30;;;;;;;;;;5016957;28;20206;-61
2023/04/13 06:10:49;;;;;;;0.70;0.43;;;;;;;;;;5015875;28;20636;-61
2023/04/13 06:13:17;;;;;;;1.65;0.40;;;;;;;;;;5016045;28;20214;-61
2023/04/13 06:15:44;;;;;;;0.80;0.50;;;;;;;;;;5016329;28;20229;-61
2023/04/13 06:18:11;;;;;;;2.13;0.55;;;;;;;;;;5016764;28;20211;-61
2023/04/13 06:20:38;;;;;;;0.55;0.40;;;;;;;;;;5016737;28;20206;-61
2023/04/13 06:23:08;;;;;;;0.90;0.30;;;;;;;;;;5019841;28;20206;-61
2023/04/13 06:25:36;;;;;;;1.13;0.60;;;;;;;;;;5019853;28;20595;-61
2023/04/13 06:28:03;;;;;;;1.15;0.43;;;;;;;;;;5020146;28;20225;-61
2023/04/13 06:30:31;;;;;;;0.82;0.50;;;;;;;;;;5019814;28;20217;-61
2023/04/13 06:32:58;;;;;;;0.50;0.35;;;;;;;;;;5020416;28;20216;-61
2023/04/13 06:35:25;;;;;;;0.85;0.40;;;;;;;;;;5019499;28;20222;-61
2023/04/13 06:37:53;;;;;;;0.50;0.47;;;;;;;;;;5019890;28;20206;-61
2023/04/13 06:40:22;;;;;;;0.68;0.38;;;;;;;;;;5019983;28;20217;-61
2023/04/13 06:42:49;;;;;;;2.33;0.30;;;;;;;;;;5019433;28;20219;-61
2023/04/13 06:45:16;;;;;;;0.60;0.40;;;;;;;;;;5019418;28;20206;-61
2023/04/13 06:47:44;;;;;;;0.40;0.30;;;;;;;;;;5020144;28;20210;-61
2023/04/13 06:50:12;;;;;;;0.60;0.30;;;;;;;;;;5020222;28;20218;-61
2023/04/13 06:52:42;;;;;;;0.55;0.47;;;;;;;;;;5019377;28;20722;-61
2023/04/13 06:55:10;;;;;;;0.80;0.40;;;;;;;;;;5018389;28;20223;-61
2023/04/13 06:57:38;;;;;;;0.75;0.50;;;;;;;;;;5018325;28;20517;-61
2023/04/13 07:00:09;;;;;;;1.63;0.50;;;;;;;;;;5019328;28;20210;-61
2023/04/13 07:02:36;;;;;;;0.68;0.40;;;;;;;;;;5018703;28;20234;-61
2023/04/13 07:05:05;;;;;;;0.60;0.45;;;;;;;;;;5018996;28;20213;-61
2023/04/13 07:07:33;;;;;;;0.77;0.40;;;;;;;;;;5019545;28;20214;-61
2023/04/13 07:10:00;;;;;;;1.00;0.40;;;;;;;;;;5019024;28;20212;-61
2023/04/13 07:12:28;;;;;;;0.82;0.40;;;;;;;;;;5019977;28;20198;-61
2023/04/13 07:14:56;;;;;;;0.70;0.40;;;;;;;;;;5018984;28;20237;-61
2023/04/13 07:17:23;;;;;;;1.00;0.50;;;;;;;;;;5019014;28;20218;-61
2023/04/13 07:19:51;;;;;;;0.65;0.30;;;;;;;;;;5018637;28;20206;-61
2023/04/13 07:22:18;;;;;;;0.63;0.40;;;;;;;;;;5018707;28;20214;-61
2023/04/13 07:24:45;;;;;;;1.40;0.40;;;;;;;;;;5019271;28;20598;-61
2023/04/13 07:27:13;;;;;;;0.88;0.40;;;;;;;;;;5018315;28;20213;-61
2023/04/13 07:29:40;;;;;;;0.55;0.30;;;;;;;;;;5019088;28;20202;-61
2023/04/13 07:32:09;;;;;;;0.43;0.30;;;;;;;;;;5018955;28;20597;-61
2023/04/13 07:34:36;;;;;;;0.95;0.40;;;;;;;;;;5018988;28;20206;-61
2023/04/13 07:37:04;;;;;;;0.52;0.30;;;;;;;;;;5018065;28;20745;-61
2023/04/13 07:39:32;;;;;;;0.57;0.40;;;;;;;;;;5018223;28;20210;-61
2023/04/13 07:42:00;;;;;;;1.40;0.35;;;;;;;;;;5018071;28;20310;-61
2023/04/13 07:44:28;;;;;;;0.40;0.40;;;;;;;;;;5018562;28;20214;-61
2023/04/13 07:46:55;;;;;;;1.08;0.40;;;;;;;;;;5017603;28;20195;-61
2023/04/13 07:49:24;;;;;;;0.63;0.38;;;;;;;;;;5018103;28;20249;-61
2023/04/13 07:51:53;;;;;;;0.50;0.45;;;;;;;;;;5018265;28;20206;-61
2023/04/13 07:54:21;;;;;;;0.50;0.40;;;;;;;;;;5017921;28;20214;-61
2023/04/13 07:56:48;;;;;;;0.55;0.32;;;;;;;;;;5017371;28;20322;-61
2023/04/13 07:59:15;;;;;;;0.50;0.40;;;;;;;;;;5018540;28;20492;-61
2023/04/13 08:01:43;;;;;;;0.63;0.50;;;;;;;;;;5018038;28;20225;-61
2023/04/13 08:04:10;;;;;;;0.73;0.47;;;;;;;;;;5018054;28;20210;-61
2023/04/13 08:06:39;;;;;;;0.63;0.30;;;;;;;;;;5017699;28;20203;-61
2023/04/13 08:09:06;;;;;;;0.57;0.50;;;;;;;;;;5017309;28;20202;-62
2023/04/13 08:11:34;;;;;;;0.77;0.40;;;;;;;;;;5017415;28;20214;-61
2023/04/13 08:14:02;;;;;;;0.82;0.40;;;;;;;;;;5017447;28;20268;-61
2023/04/13 08:16:33;;;;;;;0.55;0.40;;;;;;;;;;5017864;28;20292;-62
2023/04/13 08:19:01;;;;;;;1.10;0.40;;;;;;;;;;5018179;28;20272;-62
2023/04/13 08:21:28;;;;;;;0.73;0.38;;;;;;;;;;5017431;28;20249;-62
2023/04/13 08:23:57;;;;;;;0.80;0.43;;;;;;;;;;5018026;28;20214;-62
2023/04/13 08:26:25;;;;;;;1.88;0.60;;;;;;;;;;5016623;28;20579;-62
2023/04/13 08:28:52;;;;;;;1.05;0.40;;;;;;;;;;5017442;28;20206;-62
2023/04/13 08:31:20;;;;;;;0.60;0.40;;;;;;;;;;5016889;28;20198;-61
2023/04/13 08:33:47;;;;;;;0.85;0.38;;;;;;;;;;5017531;28;20216;-61
2023/04/13 08:36:16;;;;;;;0.75;0.50;;;;;;;;;;5017240;28;20226;-61
2023/04/13 08:38:43;;;;;;;1.17;0.30;;;;;;;;;;5016714;28;20268;-61
2023/04/13 08:41:12;;;;;;;1.83;0.50;;;;;;;;;;5016922;28;20202;-62
2023/04/13 08:43:40;;;;;;;1.02;0.30;;;;;;;;;;5016687;28;20206;-62
2023/04/13 08:46:07;;;;;;;1.60;0.60;;;;;;;;;;5016026;28;20356;-62
2023/04/13 08:48:35;;;;;;;0.68;0.40;;;;;;;;;;5016515;28;20214;-62
2023/04/13 08:51:06;;;;;;;1.65;0.43;;;;;;;;;;5016236;28;20288;-61
2023/04/13 08:53:33;;;;;;;1.00;0.35;;;;;;;;;;5016254;28;20207;-62
2023/04/13 08:56:03;;;;;;;1.20;0.38;;;;;;;;;;5016712;28;20514;-62
2023/04/13 08:58:34;;;;;;;0.60;0.60;;;;;;;;;;5016861;28;20206;-61
2023/04/13 09:01:03;;;;;;;1.05;0.40;;;;;;;;;;5015938;28;20206;-62
2023/04/13 09:03:34;;;;;;;0.70;0.40;;;;;;;;;;5015690;28;20621;-61
2023/04/13 09:06:03;;;;;;;0.95;0.50;;;;;;;;;;5016546;28;20202;-61
2023/04/13 09:08:33;;;;;;;2.53;0.50;;;;;;;;;;5016125;28;20284;-61
2023/04/13 09:11:01;;;;;;;3.35;0.52;;;;;;;;;;5016644;28;20202;-61
2023/04/13 09:13:28;;;;;;;1.27;0.40;;;;;;;;;;5015556;28;20265;-62
2023/04/13 09:15:57;;;;;;;1.00;0.50;;;;;;;;;;5015753;28;20245;-62
2023/04/13 09:18:24;;;;;;;0.75;0.40;;;;;;;;;;5016333;28;20281;-62
2023/04/13 09:20:58;;;;;;;0.57;0.40;;;;;;;;;;5015919;28;20202;-61
2023/04/13 09:23:26;;;;;;;0.90;0.40;;;;;;;;;;5016765;28;20287;-61
2023/04/13 09:26:04;;;;;;;1.10;0.50;;;;;;;;;;5016041;28;20590;-62
2023/04/13 09:28:32;;;;;;;0.80;0.50;;;;;;;;;;5016741;28;20466;-62
2023/04/13 09:31:04;;;;;;;0.82;0.52;;;;;;;;;;5015784;28;20214;-62
2023/04/13 09:33:32;;;;;;;0.40;0.32;;;;;;;;;;5015666;28;20213;-62
2023/04/13 09:36:09;;;;;;;0.60;0.40;;;;;;;;;;5016015;28;20226;-62
2023/04/13 09:38:37;;;;;;;0.52;0.40;;;;;;;;;;5015813;28;20668;-62
2023/04/13 09:41:04;;;;;;;0.57;0.40;;;;;;;;;;5015383;28;20225;-62
2023/04/13 09:43:36;;;;;;;0.65;0.30;;;;;;;;;;5015805;28;20202;-62
2023/04/13 09:46:05;;;;;;;0.43;0.20;;;;;;;;;;5014459;28;20202;-62
2023/04/13 09:48:33;;;;;;;1.35;0.50;;;;;;;;;;5015893;28;20215;-62
2023/04/13 09:51:01;;;;;;;0.50;0.50;;;;;;;;;;5014700;28;20209;-62
2023/04/13 09:53:28;;;;;;;0.50;0.43;;;;;;;;;;5016064;28;20230;-61
2023/04/13 09:55:59;;;;;;;0.63;0.40;;;;;;;;;;5015031;28;20276;-61
2023/04/13 09:58:26;;;;;;;0.60;0.40;;;;;;;;;;5015225;28;20237;-62
2023/04/13 10:00:54;;;;;;;1.00;0.47;;;;;;;;;;5015521;28;20205;-62
2023/04/13 10:03:22;;;;;;;0.65;0.40;;;;;;;;;;5016504;28;20571;-62
2023/04/13 10:05:51;;;;;;;0.77;0.60;;;;;;;;;;5015040;28;20209;-62
2023/04/13 10:08:18;;;;;;;0.57;0.35;;;;;;;;;;5015573;28;20236;-62
2023/04/13 10:10:45;;;;;;;0.85;0.50;;;;;;;;;;5014256;28;20198;-62
2023/04/13 10:13:14;;;;;;;1.55;0.60;;;;;;;;;;5015738;28;20214;-62
2023/04/13 10:15:49;;;;;;;0.70;0.40;;;;;;;;;;5015325;28;20213;-61
2023/04/13 10:18:22;;;;;;;1.15;0.63;;;;;;;;;;5015278;28;20210;-62
2023/04/13 10:20:52;;;;;;;0.75;0.50;;;;;;;;;;5014287;28;20206;-61
2023/04/13 10:23:20;;;;;;;1.33;0.50;;;;;;;;;;5014712;28;20304;-62
2023/04/13 10:25:51;;;;;;;1.15;0.55;;;;;;;;;;5014123;28;20218;-62
2023/04/13 10:28:19;;;;;;;0.93;0.40;;;;;;;;;;5014488;28;20211;-62
2023/04/13 10:30:49;;;;;;;1.27;0.47;;;;;;;;;;5013941;28;20201;-62
2023/04/13 10:33:17;;;;;;;0.80;0.45;;;;;;;;;;5014337;28;20595;-62
2023/04/13 10:35:55;;;;;;;0.50;0.40;;;;;;;;;;5014939;28;20206;-62
2023/04/13 10:38:23;;;;;;;0.47;0.47;;;;;;;;;;5014838;28;20241;-62
2023/04/13 10:40:51;;;;;;;1.70;0.60;;;;;;;;;;5014865;28;20199;-62
2023/04/13 10:43:30;;;;;;;0.57;0.50;;;;;;;;;;5014336;28;20214;-62
2023/04/13 10:46:07;;;;;;;1.20;0.50;;;;;;;;;;5014309;28;20217;-62
2023/04/13 10:48:36;;;;;;;0.73;0.40;;;;;;;;;;5014334;28;20213;-62
2023/04/13 10:51:04;;;;;;;1.63;0.50;;;;;;;;;;5014751;28;20551;-62
2023/04/13 10:53:33;;;;;;;0.80;0.50;;;;;;;;;;5015088;28;20594;-62
2023/04/13 10:56:01;;;;;;;0.80;0.50;;;;;;;;;;5015009;28;20742;-62
2023/04/13 10:58:30;;;;;;;1.10;0.50;;;;;;;;;;5015084;28;20579;-62
2023/04/13 11:00:58;;;;;;;2.72;0.50;;;;;;;;;;5014772;28;20207;-62
2023/04/13 11:03:28;;;;;;;0.65;0.32;;;;;;;;;;5014704;28;20254;-62
2023/04/13 11:05:57;;;;;;;0.60;0.47;;;;;;;;;;5014753;28;20293;-62
2023/04/13 11:08:26;;;;;;;0.47;0.40;;;;;;;;;;5016034;28;20304;-61
2023/04/13 11:10:56;;;;;;;1.27;0.50;;;;;;;;;;5017741;28;20210;-62
2023/04/13 11:13:25;;;;;;;0.73;0.50;;;;;;;;;;5017526;28;20213;-62
2023/04/13 11:15:52;;;;;;;1.02;0.65;;;;;;;;;;5018380;28;20308;-62
2023/04/13 11:18:26;;;;;;;1.02;0.50;;;;;;;;;;5017589;28;20203;-62
2023/04/13 11:20:54;;;;;;;0.60;0.50;;;;;;;;;;5017603;28;20206;-62
2023/04/13 11:23:22;;;;;;;0.77;0.60;;;;;;;;;;5018284;28;20289;-62
2023/04/13 11:25:53;;;;;;;1.60;0.40;;;;;;;;;;5016918;28;20302;-62
2023/04/13 11:28:23;;;;;;;0.47;0.40;;;;;;;;;;5016911;28;20237;-62
2023/04/13 11:30:54;;;;;;;1.27;0.70;;;;;;;;;;5017345;28;20194;-61
2023/04/13 11:33:25;;;;;;;0.73;0.30;;;;;;;;;;5017881;28;20237;-62
2023/04/13 11:35:54;;;;;;;0.82;0.50;;;;;;;;;;5017572;28;20214;-62
2023/04/13 11:38:21;;;;;;;0.68;0.40;;;;;;;;;;5017418;28;20199;-62
2023/04/13 11:40:49;;;;;;;1.15;0.63;;;;;;;;;;5016908;28;20602;-61
2023/04/13 11:43:16;;;;;;;0.93;0.47;;;;;;;;;;5017778;28;20206;-62
2023/04/13 11:45:46;;;;;;;0.43;0.40;;;;;;;;;;5017164;28;20727;-62
2023/04/13 11:48:13;;;;;;;0.63;0.50;;;;;;;;;;5017378;28;20602;-62
2023/04/13 11:50:41;;;;;;;0.98;0.32;;;;;;;;;;5017570;28;20224;-62
2023/04/13 11:53:09;;;;;;;0.40;0.40;;;;;;;;;;5017210;28;20214;-62
2023/04/13 11:55:38;;;;;;;0.90;0.57;;;;;;;;;;5016741;28;20312;-62
2023/04/13 11:58:09;;;;;;;0.77;0.43;;;;;;;;;;5017341;28;20288;-62
2023/04/13 12:00:38;;;;;;;0.55;0.50;;;;;;;;;;5017516;28;20206;-61
2023/04/13 12:03:13;;;;;;;0.52;0.40;;;;;;;;;;5016909;28;20238;-61
2023/04/13 12:05:41;;;;;;;0.30;0.30;;;;;;;;;;5016704;28;20205;-62
2023/04/13 12:08:09;;;;;;;0.50;0.40;;;;;;;;;;5016658;28;20301;-62
2023/04/13 12:10:37;;;;;;;0.80;0.40;;;;;;;;;;5016826;28;20305;-62
2023/04/13 12:13:08;;;;;;;0.85;0.50;;;;;;;;;;5016725;28;20202;-62
2023/04/13 12:15:36;;;;;;;0.45;0.40;;;;;;;;;;5016656;28;20213;-62
2023/04/13 12:18:04;;;;;;;0.75;0.52;;;;;;;;;;5016464;28;20512;-62
2023/04/13 12:20:37;;;;;;;0.65;0.50;;;;;;;;;;5015678;28;20202;-62
2023/04/13 12:23:05;;;;;;;1.02;0.60;;;;;;;;;;5016253;28;20229;-62
2023/04/13 12:25:33;;;;;;;0.60;0.57;;;;;;;;;;5016397;28;20617;-62
2023/04/13 12:28:00;;;;;;;0.50;0.40;;;;;;;;;;5016890;28;20202;-62
2023/04/13 12:30:28;;;;;;;0.55;0.40;;;;;;;;;;5016212;28;20741;-62
2023/04/13 12:32:56;;;;;;;0.47;0.40;;;;;;;;;;5016313;28;20217;-62
2023/04/13 12:35:23;;;;;;;0.82;0.50;;;;;;;;;;5016321;28;20202;-62
2023/04/13 12:37:52;;;;;;;0.57;0.35;;;;;;;;;;5015930;28;20226;-62
2023/04/13 12:40:19;;;;;;;0.77;0.43;;;;;;;;;;5017077;28;20217;-62
2023/04/13 12:42:47;;;;;;;0.80;0.40;;;;;;;;;;5016133;28;20222;-62
2023/04/13 12:45:14;;;;;;;0.50;0.40;;;;;;;;;;5016106;28;20206;-62
2023/04/13 12:47:42;;;;;;;0.60;0.40;;;;;;;;;;5016117;28;20198;-62
2023/04/13 12:50:10;;;;;;;0.88;0.40;;;;;;;;;;5015775;28;20206;-62
2023/04/13 12:52:39;;;;;;;0.57;0.50;;;;;;;;;;5015932;28;20213;-62
2023/04/13 12:55:10;;;;;;;0.57;0.50;;;;;;;;;;5014645;28;20206;-62
2023/04/13 12:57:38;;;;;;;0.40;0.40;;;;;;;;;;5015296;28;20300;-62
2023/04/13 13:00:09;;;;;;;1.13;0.40;;;;;;;;;;5016379;28;20198;-62
2023/04/13 13:02:37;;;;;;;0.55;0.47;;;;;;;;;;5015402;28;20234;-62
2023/04/13 13:05:04;;;;;;;0.88;0.38;;;;;;;;;;5015859;28;20225;-62
2023/04/13 13:07:32;;;;;;;0.60;0.40;;;;;;;;;;5015802;28;20203;-62
2023/04/13 13:10:00;;;;;;;0.60;0.50;;;;;;;;;;5015309;28;20202;-62
2023/04/13 13:12:30;;;;;;;0.50;0.40;;;;;;;;;;5015002;28;20245;-62
2023/04/13 13:14:59;;;;;;;0.77;0.40;;;;;;;;;;5015002;28;20303;-62
2023/04/13 13:17:27;;;;;;;0.60;0.47;;;;;;;;;;5014084;28;20223;-62
2023/04/13 13:19:55;;;;;;;0.65;0.50;;;;;;;;;;5014722;28;20293;-62
2023/04/13 13:22:22;;;;;;;0.82;0.50;;;;;;;;;;5014929;28;20314;-62
2023/04/13 13:24:50;;;;;;;0.60;0.50;;;;;;;;;;5015457;28;20214;-61
2023/04/13 13:27:19;;;;;;;0.82;0.65;;;;;;;;;;5014645;28;20195;-61
2023/04/13 13:29:47;;;;;;;1.05;0.57;;;;;;;;;;5014376;28;20218;-62
2023/04/13 13:32:15;;;;;;;0.65;0.40;;;;;;;;;;5014808;28;20206;-62
2023/04/13 13:34:42;;;;;;;0.47;0.40;;;;;;;;;;5014774;28;20214;-62
2023/04/13 13:37:10;;;;;;;0.43;0.40;;;;;;;;;;5014008;28;20225;-62
2023/04/13 13:39:38;;;;;;;0.45;0.40;;;;;;;;;;5014778;28;20252;-62
2023/04/13 13:42:06;;;;;;;0.40;0.40;;;;;;;;;;5015682;28;20206;-62
2023/04/13 13:44:33;;;;;;;0.82;0.50;;;;;;;;;;5014310;28;20212;-62
2023/04/13 13:47:03;;;;;;;0.70;0.50;;;;;;;;;;5014408;28;20694;-62
2023/04/13 13:49:30;;;;;;;0.45;0.45;;;;;;;;;;5015595;28;20320;-62
2023/04/13 13:51:58;;;;;;;0.55;0.50;;;;;;;;;;5015367;28;20268;-62
2023/04/13 13:54:25;;;;;;;0.40;0.40;;;;;;;;;;5015000;28;20293;-62
2023/04/13 13:56:52;;;;;;;0.70;0.43;;;;;;;;;;5015247;28;20241;-62
2023/04/13 13:59:20;;;;;;;0.60;0.40;;;;;;;;;;5014863;28;20237;-62
2023/04/13 14:01:47;;;;;;;0.45;0.45;;;;;;;;;;5014538;28;20234;-62
2023/04/13 14:04:16;;;;;;;0.40;0.40;;;;;;;;;;5014492;28;20198;-62
2023/04/13 14:06:43;;;;;;;0.93;0.60;;;;;;;;;;5013810;28;20660;-62
2023/04/13 14:09:11;;;;;;;0.80;0.50;;;;;;;;;;5014681;28;20314;-62
2023/04/13 14:11:38;;;;;;;0.57;0.50;;;;;;;;;;5015048;28;20214;-62
2023/04/13 14:14:06;;;;;;;0.85;0.47;;;;;;;;;;5013944;28;20213;-62
2023/04/13 14:16:33;;;;;;;0.40;0.30;;;;;;;;;;5014220;28;20219;-62
2023/04/13 14:19:00;;;;;;;0.68;0.40;;;;;;;;;;5014446;28;20225;-62
2023/04/13 14:21:30;;;;;;;0.93;0.50;;;;;;;;;;5014912;28;20368;-62
2023/04/13 14:23:57;;;;;;;1.13;0.47;;;;;;;;;;5014096;28;20213;-62
2023/04/13 14:26:25;;;;;;;0.55;0.38;;;;;;;;;;5013645;28;20213;-62
2023/04/13 14:28:52;;;;;;;0.30;0.30;;;;;;;;;;5013046;28;20202;-62
2023/04/13 14:31:19;;;;;;;0.65;0.50;;;;;;;;;;5013677;28;20214;-62
2023/04/13 14:33:46;;;;;;;0.60;0.50;;;;;;;;;;5014201;28;20209;-62
2023/04/13 14:36:15;;;;;;;0.65;0.50;;;;;;;;;;5014249;28;20478;-62
2023/04/13 14:38:44;;;;;;;0.88;0.47;;;;;;;;;;5013935;28;20241;-62
2023/04/13 14:41:11;;;;;;;0.45;0.45;;;;;;;;;;5014752;28;20543;-62
2023/04/13 14:43:39;;;;;;;0.93;0.40;;;;;;;;;;5018011;28;20210;-62
2023/04/13 14:46:07;;;;;;;0.40;0.30;;;;;;;;;;5017867;28;20206;-63
2023/04/13 14:48:34;;;;;;;0.60;0.40;;;;;;;;;;5017318;28;20198;-61
2023/04/13 14:51:02;;;;;;;0.45;0.40;;;;;;;;;;5017990;28;20206;-62